Time;durP1;ratioP1;P1;durP2;ratioP2;P2;SDS_P1;SDS_P2;PMS_P1;PMS_P2;Temp;Humidity;BMP_temperature;BMP_pressure;BME280_temperature;BME280_humidity;BME280_pressure;Samples;Min_cycle;Max_cycle;Signal;HPM_P1;HPM_P2
2023/11/15 00:00:40;;;;;;;3.47;1.77;;;;;;;;;;5033759;28;20040;-62
2023/11/15 00:03:07;;;;;;;3.53;1.83;;;;;;;;;;5034113;28;20033;-62
2023/11/15 00:05:32;;;;;;;5.63;2.03;;;;;;;;;;5034261;28;20067;-62
2023/11/15 00:07:59;;;;;;;3.00;1.80;;;;;;;;;;5034216;28;20068;-62
2023/11/15 00:10:25;;;;;;;3.95;2.00;;;;;;;;;;5033650;28;20103;-62
2023/11/15 00:12:51;;;;;;;3.28;1.75;;;;;;;;;;5016114;28;20453;-62
2023/11/15 00:15:17;;;;;;;3.47;1.73;;;;;;;;;;5033991;28;20037;-62
2023/11/15 00:17:43;;;;;;;4.03;1.95;;;;;;;;;;5033666;28;20393;-63
2023/11/15 00:20:12;;;;;;;2.33;1.65;;;;;;;;;;5033775;28;20034;-62
2023/11/15 00:22:37;;;;;;;3.00;1.67;;;;;;;;;;5033862;28;20021;-62
2023/11/15 00:25:03;;;;;;;4.05;1.83;;;;;;;;;;5033874;28;20378;-62
2023/11/15 00:27:28;;;;;;;4.13;2.50;;;;;;;;;;5033691;28;20046;-63
2023/11/15 00:29:54;;;;;;;3.00;1.77;;;;;;;;;;5016212;28;20037;-62
2023/11/15 00:32:20;;;;;;;3.28;1.90;;;;;;;;;;5033424;28;20025;-63
2023/11/15 00:34:46;;;;;;;3.63;1.75;;;;;;;;;;5033051;28;20034;-63
2023/11/15 00:37:11;;;;;;;2.45;1.60;;;;;;;;;;4999471;28;20087;-63
2023/11/15 00:39:40;;;;;;;2.08;1.48;;;;;;;;;;5034147;28;20482;-63
2023/11/15 00:42:08;;;;;;;3.38;1.70;;;;;;;;;;5048876;28;20473;-63
2023/11/15 00:44:34;;;;;;;2.60;1.48;;;;;;;;;;5033705;28;20028;-62
2023/11/15 00:47:00;;;;;;;4.22;2.00;;;;;;;;;;5034425;28;20025;-57
2023/11/15 00:49:26;;;;;;;2.92;1.83;;;;;;;;;;5003536;28;20021;-57
2023/11/15 00:51:53;;;;;;;5.00;2.25;;;;;;;;;;5037836;28;20451;-57
2023/11/15 00:54:19;;;;;;;2.92;1.98;;;;;;;;;;5003795;28;20025;-55
2023/11/15 00:56:44;;;;;;;3.30;2.13;;;;;;;;;;5037963;28;20029;-60
2023/11/15 00:59:10;;;;;;;3.60;2.17;;;;;;;;;;5037374;28;20029;-61
2023/11/15 01:01:36;;;;;;;4.72;2.10;;;;;;;;;;5037543;28;20175;-62
2023/11/15 01:04:04;;;;;;;6.40;2.05;;;;;;;;;;5019564;28;20040;-63
2023/11/15 01:06:31;;;;;;;3.63;1.67;;;;;;;;;;5037410;28;20025;-61
2023/11/15 01:08:57;;;;;;;4.82;1.83;;;;;;;;;;5019625;28;20026;-56
2023/11/15 01:11:25;;;;;;;3.60;1.83;;;;;;;;;;5019785;28;20052;-55
2023/11/15 01:13:50;;;;;;;3.63;1.80;;;;;;;;;;5019057;28;20025;-60
2023/11/15 01:16:17;;;;;;;3.97;2.17;;;;;;;;;;5037570;28;20029;-61
2023/11/15 01:18:42;;;;;;;2.72;1.60;;;;;;;;;;5019247;28;20026;-61
2023/11/15 01:21:09;;;;;;;2.15;1.70;;;;;;;;;;5036907;28;20038;-61
2023/11/15 01:23:35;;;;;;;2.78;1.73;;;;;;;;;;5018899;28;20068;-61
2023/11/15 01:26:01;;;;;;;3.47;1.38;;;;;;;;;;5037201;28;20030;-61
2023/11/15 01:28:26;;;;;;;3.63;1.98;;;;;;;;;;5051789;28;20041;-55
2023/11/15 01:30:52;;;;;;;2.50;1.77;;;;;;;;;;5018999;28;20116;-55
2023/11/15 01:33:17;;;;;;;2.78;1.73;;;;;;;;;;5037135;28;20029;-55
2023/11/15 01:35:43;;;;;;;2.55;1.55;;;;;;;;;;5019308;28;20029;-55
2023/11/15 01:38:08;;;;;;;2.53;1.60;;;;;;;;;;5002505;28;20359;-55
2023/11/15 01:40:36;;;;;;;3.67;1.75;;;;;;;;;;5036609;28;20028;-55
2023/11/15 01:43:03;;;;;;;4.00;1.70;;;;;;;;;;5019083;28;20076;-55
2023/11/15 01:45:28;;;;;;;3.10;1.92;;;;;;;;;;5036592;28;20033;-55
2023/11/15 01:47:54;;;;;;;4.18;1.52;;;;;;;;;;5036749;28;20035;-55
2023/11/15 01:50:20;;;;;;;2.97;1.40;;;;;;;;;;5018428;28;20032;-55
2023/11/15 01:52:46;;;;;;;2.45;1.42;;;;;;;;;;5036256;28;20021;-55
2023/11/15 01:55:14;;;;;;;1.52;1.42;;;;;;;;;;5036112;28;20017;-54
2023/11/15 01:57:40;;;;;;;1.98;1.33;;;;;;;;;;5017722;28;20116;-54
2023/11/15 02:00:10;;;;;;;2.15;1.38;;;;;;;;;;5018058;28;20568;-54
2023/11/15 02:02:39;;;;;;;3.50;1.60;;;;;;;;;;5036346;28;20045;-55
2023/11/15 02:05:10;;;;;;;2.08;1.35;;;;;;;;;;5018067;28;20037;-55
2023/11/15 02:07:40;;;;;;;1.30;1.00;;;;;;;;;;5017646;28;20018;-55
2023/11/15 02:10:06;;;;;;;2.33;1.40;;;;;;;;;;5036423;28;20029;-60
2023/11/15 02:12:33;;;;;;;1.63;1.45;;;;;;;;;;5036378;28;20026;-60
2023/11/15 02:15:06;;;;;;;2.35;1.92;;;;;;;;;;5018312;28;20111;-60
2023/11/15 02:17:32;;;;;;;2.22;1.50;;;;;;;;;;5036416;28;20033;-60
2023/11/15 02:20:06;;;;;;;2.05;1.42;;;;;;;;;;5017910;28;20116;-60
2023/11/15 02:22:32;;;;;;;1.70;1.60;;;;;;;;;;5018913;28;20385;-60
2023/11/15 02:24:59;;;;;;;3.63;1.70;;;;;;;;;;5035808;28;20022;-60
2023/11/15 02:27:24;;;;;;;1.65;1.42;;;;;;;;;;5055028;23;20093;-56
2023/11/15 02:29:51;;;;;;;1.67;1.27;;;;;;;;;;5018510;23;20058;-56
2023/11/15 02:32:17;;;;;;;1.98;1.33;;;;;;;;;;5051369;23;20132;-55
2023/11/15 02:34:42;;;;;;;1.60;1.50;;;;;;;;;;4999628;23;20137;-60
2023/11/15 02:37:09;;;;;;;1.38;1.27;;;;;;;;;;4995119;28;20155;-55
2023/11/15 02:39:34;;;;;;;2.17;1.42;;;;;;;;;;4996123;28;20041;-54
2023/11/15 02:41:59;;;;;;;1.48;1.38;;;;;;;;;;4995940;28;20390;-54
2023/11/15 02:44:25;;;;;;;1.50;0.98;;;;;;;;;;4996373;28;20018;-55
2023/11/15 02:46:50;;;;;;;2.00;1.55;;;;;;;;;;4978446;28;20034;-55
2023/11/15 02:49:16;;;;;;;1.98;1.38;;;;;;;;;;4995585;28;20033;-55
2023/11/15 02:51:41;;;;;;;1.70;1.20;;;;;;;;;;4996029;28;20041;-55
2023/11/15 02:54:07;;;;;;;1.63;1.40;;;;;;;;;;4978446;28;20073;-54
2023/11/15 02:56:32;;;;;;;1.38;1.27;;;;;;;;;;4995869;28;20104;-55
2023/11/15 02:58:58;;;;;;;4.38;1.83;;;;;;;;;;4978711;28;20049;-55
2023/11/15 03:01:23;;;;;;;2.15;1.48;;;;;;;;;;5010436;28;20037;-55
2023/11/15 03:03:49;;;;;;;2.10;1.67;;;;;;;;;;4978389;28;20557;-61
2023/11/15 03:06:14;;;;;;;2.50;1.40;;;;;;;;;;4995504;28;20520;-61
2023/11/15 03:08:40;;;;;;;1.33;1.17;;;;;;;;;;4977870;28;20018;-61
2023/11/15 03:11:06;;;;;;;1.58;1.20;;;;;;;;;;4994595;28;20088;-60
2023/11/15 03:13:32;;;;;;;1.77;1.67;;;;;;;;;;4995283;28;20038;-60
2023/11/15 03:15:58;;;;;;;1.52;1.42;;;;;;;;;;4995209;28;20038;-60
2023/11/15 03:18:23;;;;;;;1.80;1.27;;;;;;;;;;4995416;28;20505;-60
2023/11/15 03:20:49;;;;;;;1.40;1.27;;;;;;;;;;4977988;28;20038;-60
2023/11/15 03:23:15;;;;;;;1.83;1.35;;;;;;;;;;4995617;28;20019;-59
2023/11/15 03:25:40;;;;;;;2.25;1.17;;;;;;;;;;4995573;28;20031;-59
2023/11/15 03:28:06;;;;;;;1.35;1.25;;;;;;;;;;4978258;28;20061;-60
2023/11/15 03:30:31;;;;;;;1.48;1.38;;;;;;;;;;4978228;28;20030;-59
2023/11/15 03:32:57;;;;;;;1.85;1.75;;;;;;;;;;4995174;28;20466;-60
2023/11/15 03:35:22;;;;;;;1.05;0.95;;;;;;;;;;4977879;28;20049;-61
2023/11/15 03:37:48;;;;;;;1.27;1.17;;;;;;;;;;4995056;28;20501;-61
2023/11/15 03:40:14;;;;;;;0.93;0.93;;;;;;;;;;4977526;28;20092;-61
2023/11/15 03:42:39;;;;;;;2.10;1.13;;;;;;;;;;4995105;28;20026;-60
2023/11/15 03:45:05;;;;;;;1.63;1.10;;;;;;;;;;4995077;28;20126;-60
2023/11/15 03:47:31;;;;;;;2.13;1.15;;;;;;;;;;4995084;28;20026;-60
2023/11/15 03:49:58;;;;;;;1.17;1.05;;;;;;;;;;4977711;28;20474;-60
2023/11/15 03:52:23;;;;;;;2.05;1.05;;;;;;;;;;4978072;28;20038;-61
2023/11/15 03:54:49;;;;;;;1.23;1.13;;;;;;;;;;4994653;28;20504;-60
2023/11/15 03:57:14;;;;;;;1.02;0.95;;;;;;;;;;4977568;28;20385;-60
2023/11/15 03:59:40;;;;;;;1.42;1.30;;;;;;;;;;4994917;28;20034;-61
2023/11/15 04:02:06;;;;;;;1.05;0.98;;;;;;;;;;4994851;28;20026;-61
2023/11/15 04:04:31;;;;;;;1.30;0.98;;;;;;;;;;4994908;28;20513;-61
2023/11/15 04:06:57;;;;;;;0.90;0.90;;;;;;;;;;4994705;28;20027;-61
2023/11/15 04:09:22;;;;;;;1.27;1.02;;;;;;;;;;4994787;28;20018;-61
2023/11/15 04:11:48;;;;;;;0.93;0.93;;;;;;;;;;4977256;28;20093;-61
2023/11/15 04:14:14;;;;;;;1.67;0.77;;;;;;;;;;4977234;28;20490;-61
2023/11/15 04:16:39;;;;;;;1.33;1.20;;;;;;;;;;4977558;28;20062;-61
2023/11/15 04:19:04;;;;;;;0.75;0.75;;;;;;;;;;4977473;28;20042;-61
2023/11/15 04:21:31;;;;;;;1.25;1.05;;;;;;;;;;4976470;28;20042;-61
2023/11/15 04:23:56;;;;;;;2.00;1.10;;;;;;;;;;4994460;28;20022;-62
2023/11/15 04:26:22;;;;;;;1.58;1.35;;;;;;;;;;4994650;28;20098;-61
2023/11/15 04:28:47;;;;;;;1.85;1.30;;;;;;;;;;4994725;28;20026;-61
2023/11/15 04:31:12;;;;;;;0.95;0.93;;;;;;;;;;4994727;28;20154;-61
2023/11/15 04:33:38;;;;;;;1.20;1.10;;;;;;;;;;4994231;28;20026;-61
2023/11/15 04:36:03;;;;;;;0.82;0.80;;;;;;;;;;4994404;28;20355;-61
2023/11/15 04:38:29;;;;;;;1.10;0.90;;;;;;;;;;4976653;28;20030;-60
2023/11/15 04:40:55;;;;;;;0.98;0.98;;;;;;;;;;4994017;28;20065;-61
2023/11/15 04:43:21;;;;;;;1.25;0.93;;;;;;;;;;4994351;28;20117;-60
2023/11/15 04:45:46;;;;;;;0.90;0.90;;;;;;;;;;4977121;28;20114;-60
2023/11/15 04:48:12;;;;;;;1.15;1.00;;;;;;;;;;4994130;28;20037;-60
2023/11/15 04:50:37;;;;;;;0.77;0.77;;;;;;;;;;4994633;28;20034;-60
2023/11/15 04:53:05;;;;;;;1.67;1.00;;;;;;;;;;4993313;28;20030;-60
2023/11/15 04:55:31;;;;;;;1.48;1.17;;;;;;;;;;4993670;28;20023;-60
2023/11/15 04:57:56;;;;;;;0.98;0.82;;;;;;;;;;4994559;28;20035;-60
2023/11/15 05:00:21;;;;;;;1.42;0.80;;;;;;;;;;4993541;28;20072;-61
2023/11/15 05:02:47;;;;;;;1.00;1.00;;;;;;;;;;4993380;28;20386;-60
2023/11/15 05:05:14;;;;;;;1.55;1.20;;;;;;;;;;4992849;28;20434;-61
2023/11/15 05:07:39;;;;;;;3.15;2.55;;;;;;;;;;4991861;28;20015;-60
2023/11/15 05:10:05;;;;;;;2.42;2.20;;;;;;;;;;4991700;28;20038;-60
2023/11/15 05:12:31;;;;;;;2.17;1.98;;;;;;;;;;4991605;28;20026;-60
2023/11/15 05:14:57;;;;;;;1.33;1.20;;;;;;;;;;4992339;28;20509;-61
2023/11/15 05:17:22;;;;;;;1.20;1.10;;;;;;;;;;4991380;28;20076;-61
2023/11/15 05:19:48;;;;;;;1.00;0.90;;;;;;;;;;4991982;28;20425;-61
2023/11/15 05:22:13;;;;;;;1.70;1.50;;;;;;;;;;4994021;28;20046;-61
2023/11/15 05:24:39;;;;;;;2.40;2.20;;;;;;;;;;4994117;28;20036;-61
2023/11/15 05:27:05;;;;;;;2.13;1.95;;;;;;;;;;4994023;28;20030;-62
2023/11/15 05:29:30;;;;;;;2.03;1.33;;;;;;;;;;4994031;28;20113;-62
2023/11/15 05:31:56;;;;;;;1.48;1.38;;;;;;;;;;4993997;28;20034;-61
2023/11/15 05:34:21;;;;;;;1.33;1.25;;;;;;;;;;4978988;28;20057;-62
2023/11/15 05:36:46;;;;;;;1.40;1.30;;;;;;;;;;4996888;28;20113;-61
2023/11/15 05:39:12;;;;;;;1.00;1.00;;;;;;;;;;4997446;28;20044;-62
2023/11/15 05:41:37;;;;;;;1.75;1.23;;;;;;;;;;4996986;28;20035;-62
2023/11/15 05:44:03;;;;;;;1.52;1.42;;;;;;;;;;4997271;28;20037;-62
2023/11/15 05:46:29;;;;;;;2.30;2.10;;;;;;;;;;4988655;28;20035;-62
2023/11/15 05:48:54;;;;;;;2.15;2.03;;;;;;;;;;4977715;28;20080;-61
2023/11/15 05:51:20;;;;;;;1.48;1.35;;;;;;;;;;4960102;28;20057;-61
2023/11/15 05:53:45;;;;;;;1.58;1.33;;;;;;;;;;4977591;28;20085;-61
2023/11/15 05:56:11;;;;;;;1.60;1.50;;;;;;;;;;4977661;28;20068;-62
2023/11/15 05:58:37;;;;;;;2.30;1.73;;;;;;;;;;4977664;28;20034;-61
2023/11/15 06:01:03;;;;;;;1.48;1.38;;;;;;;;;;4977328;28;20035;-62
2023/11/15 06:03:28;;;;;;;1.30;1.10;;;;;;;;;;4977615;28;20027;-62
2023/11/15 06:05:54;;;;;;;1.42;1.20;;;;;;;;;;4959926;28;20041;-62
2023/11/15 06:08:19;;;;;;;1.50;1.40;;;;;;;;;;4977270;28;20039;-61
2023/11/15 06:10:47;;;;;;;1.88;1.73;;;;;;;;;;4977190;28;20097;-61
2023/11/15 06:13:15;;;;;;;1.88;1.50;;;;;;;;;;4977099;28;20534;-61
2023/11/15 06:15:44;;;;;;;3.03;2.38;;;;;;;;;;4977119;28;20041;-61
2023/11/15 06:18:10;;;;;;;4.22;2.88;;;;;;;;;;4959911;28;20490;-62
2023/11/15 06:20:38;;;;;;;2.90;2.03;;;;;;;;;;4976916;28;20042;-61
2023/11/15 06:23:05;;;;;;;2.17;1.70;;;;;;;;;;4977006;28;20026;-62
2023/11/15 06:25:32;;;;;;;1.80;1.70;;;;;;;;;;4977051;28;20031;-61
2023/11/15 06:27:57;;;;;;;4.28;2.38;;;;;;;;;;4957439;28;20053;-61
2023/11/15 06:30:23;;;;;;;2.55;1.98;;;;;;;;;;4975449;28;20518;-62
2023/11/15 06:32:49;;;;;;;1.45;1.35;;;;;;;;;;4975724;28;20031;-62
2023/11/15 06:35:18;;;;;;;3.30;1.27;;;;;;;;;;4987904;28;20046;-62
2023/11/15 06:37:46;;;;;;;1.70;1.35;;;;;;;;;;4976809;28;20492;-61
2023/11/15 06:40:13;;;;;;;2.45;1.85;;;;;;;;;;4994056;28;20023;-61
2023/11/15 06:42:39;;;;;;;1.55;1.30;;;;;;;;;;4995383;28;20034;-61
2023/11/15 06:45:04;;;;;;;2.22;1.35;;;;;;;;;;4978261;28;20023;-61
2023/11/15 06:47:30;;;;;;;1.83;1.63;;;;;;;;;;4995783;28;20586;-61
2023/11/15 06:49:56;;;;;;;2.25;2.05;;;;;;;;;;4995646;28;20077;-61
2023/11/15 06:52:21;;;;;;;2.42;2.22;;;;;;;;;;4995832;28;20035;-61
2023/11/15 06:54:46;;;;;;;2.22;2.13;;;;;;;;;;4995607;28;20158;-61
2023/11/15 06:57:12;;;;;;;4.57;2.25;;;;;;;;;;4995548;28;20058;-61
2023/11/15 06:59:37;;;;;;;3.22;2.67;;;;;;;;;;4995703;28;20026;-61
2023/11/15 07:02:06;;;;;;;4.93;3.85;;;;;;;;;;4995569;28;20074;-61
2023/11/15 07:04:32;;;;;;;3.42;2.42;;;;;;;;;;4995416;28;20023;-61
2023/11/15 07:06:58;;;;;;;2.53;2.33;;;;;;;;;;4995360;28;20097;-61
2023/11/15 07:09:24;;;;;;;2.60;2.40;;;;;;;;;;4995347;28;20716;-61
2023/11/15 07:11:49;;;;;;;2.53;2.33;;;;;;;;;;4995322;28;20033;-61
2023/11/15 07:14:15;;;;;;;4.07;2.80;;;;;;;;;;4995202;28;20030;-61
2023/11/15 07:16:47;;;;;;;4.93;3.83;;;;;;;;;;4995135;28;20371;-61
2023/11/15 07:19:13;;;;;;;4.88;3.45;;;;;;;;;;4977849;28;20034;-61
2023/11/15 07:21:38;;;;;;;4.72;3.40;;;;;;;;;;4995061;28;20027;-61
2023/11/15 07:24:04;;;;;;;3.53;2.55;;;;;;;;;;4995039;28;20042;-61
2023/11/15 07:26:35;;;;;;;4.28;2.75;;;;;;;;;;4995177;28;20505;-61
2023/11/15 07:29:02;;;;;;;3.83;3.42;;;;;;;;;;4995036;28;20037;-61
2023/11/15 07:31:28;;;;;;;3.72;3.42;;;;;;;;;;4994952;28;20096;-61
2023/11/15 07:33:56;;;;;;;4.10;3.63;;;;;;;;;;4995034;28;20066;-61
2023/11/15 07:36:21;;;;;;;4.22;3.60;;;;;;;;;;4995064;28;20037;-61
2023/11/15 07:38:47;;;;;;;5.70;4.13;;;;;;;;;;4994898;28;20030;-61
2023/11/15 07:41:12;;;;;;;5.13;3.83;;;;;;;;;;4994698;28;20106;-61
2023/11/15 07:43:37;;;;;;;7.50;3.28;;;;;;;;;;4961226;28;20143;-61
2023/11/15 07:46:08;;;;;;;3.95;3.25;;;;;;;;;;4994692;28;20034;-61
2023/11/15 07:48:34;;;;;;;;;;;;;;;;;;4995081;28;20058;-61
2023/11/15 07:51:03;;;;;;;5.72;3.03;;;;;;;;;;4977120;28;19916;-61
2023/11/15 07:53:29;;;;;;;3.45;3.15;;;;;;;;;;4994612;28;20041;-61
2023/11/15 07:55:55;;;;;;;4.53;2.90;;;;;;;;;;4976781;28;20045;-61
2023/11/15 07:58:21;;;;;;;4.80;2.83;;;;;;;;;;4994550;28;20022;-61
2023/11/15 08:00:47;;;;;;;2.78;2.55;;;;;;;;;;4994383;28;20479;-61
2023/11/15 08:03:13;;;;;;;3.08;2.78;;;;;;;;;;4994423;28;20101;-61
2023/11/15 08:05:38;;;;;;;2.30;2.03;;;;;;;;;;4977038;28;20524;-61
2023/11/15 08:08:06;;;;;;;2.55;2.30;;;;;;;;;;4994309;28;20482;-61
2023/11/15 08:10:32;;;;;;;3.35;2.58;;;;;;;;;;4994369;28;20496;-61
2023/11/15 08:12:57;;;;;;;2.80;2.28;;;;;;;;;;4976925;28;20027;-61
2023/11/15 08:15:23;;;;;;;2.53;2.33;;;;;;;;;;4994337;28;20033;-62
2023/11/15 08:17:48;;;;;;;2.42;2.20;;;;;;;;;;4994215;28;20117;-61
2023/11/15 08:20:14;;;;;;;2.78;2.58;;;;;;;;;;4994217;28;20520;-61
2023/11/15 08:22:40;;;;;;;2.28;2.08;;;;;;;;;;4994264;28;20023;-61
2023/11/15 08:25:08;;;;;;;2.88;2.47;;;;;;;;;;4994133;28;20065;-61
2023/11/15 08:27:34;;;;;;;2.70;2.50;;;;;;;;;;4994309;28;20057;-61
2023/11/15 08:30:03;;;;;;;3.30;2.28;;;;;;;;;;4994152;28;20022;-61
2023/11/15 08:32:29;;;;;;;2.95;2.25;;;;;;;;;;4994054;28;20038;-61
2023/11/15 08:34:55;;;;;;;4.45;2.08;;;;;;;;;;4993942;28;20137;-61
2023/11/15 08:37:20;;;;;;;1.80;1.67;;;;;;;;;;4994097;28;20430;-61
2023/11/15 08:39:46;;;;;;;2.10;1.90;;;;;;;;;;4994008;28;20038;-61
2023/11/15 08:42:11;;;;;;;2.28;2.08;;;;;;;;;;4994030;28;20034;-61
2023/11/15 08:44:41;;;;;;;1.95;1.85;;;;;;;;;;4976545;28;20031;-61
2023/11/15 08:47:06;;;;;;;2.20;1.92;;;;;;;;;;4994070;28;20023;-61
2023/11/15 08:49:32;;;;;;;1.67;1.58;;;;;;;;;;4976700;28;20041;-61
2023/11/15 08:51:58;;;;;;;1.90;1.80;;;;;;;;;;4993989;28;20077;-61
2023/11/15 08:54:23;;;;;;;2.38;1.58;;;;;;;;;;4993890;28;20482;-61
2023/11/15 08:56:50;;;;;;;2.15;1.98;;;;;;;;;;4994107;28;20031;-61
2023/11/15 08:59:15;;;;;;;1.77;1.67;;;;;;;;;;4993981;28;20549;-61
2023/11/15 09:01:41;;;;;;;1.70;1.60;;;;;;;;;;4993939;28;20038;-61
2023/11/15 09:04:07;;;;;;;2.97;2.75;;;;;;;;;;4993843;28;20077;-61
2023/11/15 09:06:34;;;;;;;2.10;1.58;;;;;;;;;;4993801;28;20509;-61
2023/11/15 09:09:00;;;;;;;2.17;1.55;;;;;;;;;;4978883;28;20050;-61
2023/11/15 09:11:27;;;;;;;1.40;1.30;;;;;;;;;;4997474;28;20109;-61
2023/11/15 09:13:54;;;;;;;1.52;1.42;;;;;;;;;;4997500;28;20026;-61
2023/11/15 09:16:21;;;;;;;1.38;1.13;;;;;;;;;;4997443;28;20077;-61
2023/11/15 09:18:48;;;;;;;1.40;1.25;;;;;;;;;;4997373;28;20041;-61
2023/11/15 09:21:14;;;;;;;1.63;1.30;;;;;;;;;;4997390;28;20046;-61
2023/11/15 09:23:41;;;;;;;1.70;1.25;;;;;;;;;;4997478;28;20026;-61
2023/11/15 09:26:10;;;;;;;1.15;1.10;;;;;;;;;;4997247;28;20479;-61
2023/11/15 09:28:35;;;;;;;1.27;1.17;;;;;;;;;;4997237;28;20025;-61
2023/11/15 09:33:35;;;;;;;2.55;0.90;;;;;;;;;;5006236;23;20062;-61
2023/11/15 09:36:01;;;;;;;1.17;0.90;;;;;;;;;;5020752;23;20054;-58
2023/11/15 09:38:27;;;;;;;1.10;1.10;;;;;;;;;;5024715;23;20514;-58
2023/11/15 09:40:53;;;;;;;2.55;1.17;;;;;;;;;;5019696;23;20982;-57
2023/11/15 09:43:19;;;;;;;1.33;1.23;;;;;;;;;;4997601;28;20034;-57
2023/11/15 09:45:46;;;;;;;2.25;1.00;;;;;;;;;;4997259;28;20041;-57
2023/11/15 09:48:12;;;;;;;1.30;1.20;;;;;;;;;;4997199;28;20030;-57
2023/11/15 09:50:41;;;;;;;2.22;1.10;;;;;;;;;;4979477;28;20084;-57
2023/11/15 09:53:07;;;;;;;1.35;1.25;;;;;;;;;;4979350;28;20479;-57
2023/11/15 09:55:36;;;;;;;1.20;1.10;;;;;;;;;;4996816;28;20025;-57
2023/11/15 09:58:01;;;;;;;1.77;1.67;;;;;;;;;;4996999;28;20061;-57
2023/11/15 10:00:30;;;;;;;1.75;1.33;;;;;;;;;;4996481;28;20030;-57
2023/11/15 10:02:56;;;;;;;1.17;1.15;;;;;;;;;;4997000;28;20385;-57
2023/11/15 10:05:23;;;;;;;2.00;1.30;;;;;;;;;;4996889;28;20030;-57
2023/11/15 10:08:15;;;;;;;1.20;1.10;;;;;;;;;;4997105;28;20121;-57
2023/11/15 10:10:43;;;;;;;1.50;1.40;;;;;;;;;;4996823;28;20378;-57
2023/11/15 10:13:14;;;;;;;0.90;0.90;;;;;;;;;;4996783;28;20042;-57
2023/11/15 10:15:42;;;;;;;1.48;1.25;;;;;;;;;;4996734;28;20041;-57
2023/11/15 10:18:08;;;;;;;0.80;0.80;;;;;;;;;;4996683;28;20168;-57
2023/11/15 10:20:34;;;;;;;1.00;0.85;;;;;;;;;;4996062;28;20458;-57
2023/11/15 10:22:59;;;;;;;0.85;0.85;;;;;;;;;;4978955;28;20026;-57
2023/11/15 10:25:27;;;;;;;1.00;1.00;;;;;;;;;;4978781;28;20062;-57
2023/11/15 10:28:13;;;;;;;1.42;1.17;;;;;;;;;;4996779;28;20022;-57
2023/11/15 10:30:38;;;;;;;1.30;1.20;;;;;;;;;;4996735;28;20037;-57
2023/11/15 10:33:14;;;;;;;1.05;0.85;;;;;;;;;;4996386;28;20026;-57
2023/11/15 10:35:43;;;;;;;1.20;1.10;;;;;;;;;;4996084;28;20030;-57
2023/11/15 10:38:14;;;;;;;1.02;0.93;;;;;;;;;;4996059;28;20032;-57
2023/11/15 10:40:40;;;;;;;1.23;1.05;;;;;;;;;;4995991;28;20092;-58
2023/11/15 10:43:07;;;;;;;1.50;1.10;;;;;;;;;;4996215;28;20026;-57
2023/11/15 10:45:35;;;;;;;1.17;0.98;;;;;;;;;;4996130;28;20023;-57
2023/11/15 10:48:03;;;;;;;1.60;1.50;;;;;;;;;;4995843;28;20061;-57
2023/11/15 10:50:31;;;;;;;1.70;1.60;;;;;;;;;;4996367;28;20108;-57
2023/11/15 10:53:01;;;;;;;1.60;1.25;;;;;;;;;;4996280;28;20092;-57
2023/11/15 10:55:27;;;;;;;1.38;1.33;;;;;;;;;;4995990;28;20025;-57
2023/11/15 10:57:57;;;;;;;1.33;1.08;;;;;;;;;;4995920;28;20029;-57
2023/11/15 11:00:24;;;;;;;1.50;1.38;;;;;;;;;;4996132;28;20022;-57
2023/11/15 11:03:00;;;;;;;1.10;1.10;;;;;;;;;;4995514;28;20042;-57
2023/11/15 11:05:25;;;;;;;0.90;0.90;;;;;;;;;;4977877;28;20030;-58
2023/11/15 11:07:59;;;;;;;1.48;1.38;;;;;;;;;;4995367;28;20501;-57
2023/11/15 11:10:50;;;;;;;1.05;1.05;;;;;;;;;;4995443;28;20054;-57
2023/11/15 11:13:18;;;;;;;0.75;0.75;;;;;;;;;;4995334;28;20109;-57
2023/11/15 11:15:45;;;;;;;1.70;1.60;;;;;;;;;;4995286;28;20034;-57
2023/11/15 11:18:15;;;;;;;1.40;1.30;;;;;;;;;;4995196;28;20026;-57
2023/11/15 11:20:41;;;;;;;1.75;1.55;;;;;;;;;;4995084;28;20030;-57
2023/11/15 11:23:11;;;;;;;1.92;1.42;;;;;;;;;;4978079;28;20049;-57
2023/11/15 11:25:40;;;;;;;2.10;1.50;;;;;;;;;;4995118;28;20030;-57
2023/11/15 11:28:06;;;;;;;1.70;1.52;;;;;;;;;;4995063;28;20037;-57
2023/11/15 11:30:32;;;;;;;2.17;1.48;;;;;;;;;;4994310;28;20030;-57
2023/11/15 11:33:13;;;;;;;1.60;1.27;;;;;;;;;;4995082;28;20022;-57
2023/11/15 11:35:40;;;;;;;1.27;1.08;;;;;;;;;;4994910;28;20466;-57
2023/11/15 11:38:06;;;;;;;1.15;1.02;;;;;;;;;;4994884;28;20505;-57
2023/11/15 11:40:38;;;;;;;1.00;1.00;;;;;;;;;;4977259;28;20085;-57
2023/11/15 11:43:16;;;;;;;2.70;1.40;;;;;;;;;;4994894;28;20490;-57
2023/11/15 11:45:45;;;;;;;1.35;1.00;;;;;;;;;;4994758;28;20035;-57
2023/11/15 11:48:16;;;;;;;1.08;0.98;;;;;;;;;;4994828;28;20022;-57
2023/11/15 11:51:03;;;;;;;1.58;0.88;;;;;;;;;;4995078;28;20031;-57
2023/11/15 11:53:28;;;;;;;1.00;1.00;;;;;;;;;;4977252;28;20022;-57
2023/11/15 11:55:55;;;;;;;1.05;0.85;;;;;;;;;;4994649;28;20028;-57
2023/11/15 11:58:21;;;;;;;0.80;0.80;;;;;;;;;;4994545;28;20045;-57
2023/11/15 12:00:48;;;;;;;0.80;0.80;;;;;;;;;;4994445;28;20421;-57
2023/11/15 12:03:14;;;;;;;0.85;0.85;;;;;;;;;;4994505;28;20039;-57
2023/11/15 12:05:39;;;;;;;0.82;0.80;;;;;;;;;;4994698;28;20493;-57
2023/11/15 12:08:04;;;;;;;2.33;1.00;;;;;;;;;;4994400;28;20037;-57
2023/11/15 12:10:30;;;;;;;1.00;1.00;;;;;;;;;;4994355;28;20373;-57
2023/11/15 12:12:56;;;;;;;1.10;0.95;;;;;;;;;;4994402;28;20034;-57
2023/11/15 12:15:24;;;;;;;1.23;0.82;;;;;;;;;;4994414;28;20041;-57
2023/11/15 12:17:51;;;;;;;1.35;1.08;;;;;;;;;;4994329;28;20089;-57
2023/11/15 12:20:28;;;;;;;1.50;1.08;;;;;;;;;;4994349;28;20080;-57
2023/11/15 12:23:04;;;;;;;1.17;1.02;;;;;;;;;;4994134;28;20038;-57
2023/11/15 12:25:33;;;;;;;1.30;1.20;;;;;;;;;;4994300;28;20030;-57
2023/11/15 12:28:02;;;;;;;1.50;1.40;;;;;;;;;;4994186;28;20041;-57
2023/11/15 12:30:33;;;;;;;2.22;1.15;;;;;;;;;;4994151;28;20030;-57
2023/11/15 12:33:02;;;;;;;1.33;1.20;;;;;;;;;;4994258;28;20049;-57
2023/11/15 12:35:31;;;;;;;0.85;0.55;;;;;;;;;;4994135;28;20109;-57
2023/11/15 12:37:57;;;;;;;0.95;0.82;;;;;;;;;;4994097;28;20022;-57
2023/11/15 12:40:23;;;;;;;0.52;0.52;;;;;;;;;;4976611;28;20121;-57
2023/11/15 12:42:49;;;;;;;0.93;0.93;;;;;;;;;;4995927;28;20113;-57
2023/11/15 12:45:27;;;;;;;0.98;0.95;;;;;;;;;;4998067;28;20029;-57
2023/11/15 12:47:59;;;;;;;2.10;1.08;;;;;;;;;;4997995;28;20038;-57
2023/11/15 12:50:26;;;;;;;1.70;1.60;;;;;;;;;;4998382;28;20030;-57
2023/11/15 12:52:51;;;;;;;2.17;1.60;;;;;;;;;;4997988;28;20030;-57
2023/11/15 12:55:33;;;;;;;1.88;1.48;;;;;;;;;;4997882;28;20549;-57
2023/11/15 12:57:58;;;;;;;1.27;1.17;;;;;;;;;;4997791;28;20031;-57
2023/11/15 13:00:33;;;;;;;1.42;1.33;;;;;;;;;;4997743;28;20496;-57
2023/11/15 13:02:58;;;;;;;3.10;2.72;;;;;;;;;;4997799;28;20494;-57
2023/11/15 13:05:28;;;;;;;1.65;1.33;;;;;;;;;;4997675;28;20046;-57
2023/11/15 13:07:53;;;;;;;0.90;0.90;;;;;;;;;;4997588;28;20394;-57
2023/11/15 13:10:19;;;;;;;1.02;0.98;;;;;;;;;;4997623;28;20041;-57
2023/11/15 13:12:44;;;;;;;1.15;0.88;;;;;;;;;;4997567;28;20041;-57
2023/11/15 13:15:17;;;;;;;1.35;1.25;;;;;;;;;;4997517;28;20166;-57
2023/11/15 13:17:44;;;;;;;1.77;1.25;;;;;;;;;;4997291;28;20030;-57
2023/11/15 13:20:10;;;;;;;2.53;1.40;;;;;;;;;;4997391;28;20046;-57
2023/11/15 13:22:38;;;;;;;1.60;1.50;;;;;;;;;;4997539;28;20393;-56
2023/11/15 13:25:04;;;;;;;1.02;1.00;;;;;;;;;;4997311;28;20033;-57
2023/11/15 13:27:30;;;;;;;1.70;1.48;;;;;;;;;;4996153;28;20044;-57
2023/11/15 13:29:57;;;;;;;1.90;1.75;;;;;;;;;;4996450;28;20030;-57
2023/11/15 13:32:22;;;;;;;2.20;2.00;;;;;;;;;;4996124;28;20045;-57
2023/11/15 13:34:50;;;;;;;2.53;1.42;;;;;;;;;;4996116;28;20026;-57
2023/11/15 13:37:15;;;;;;;1.85;1.30;;;;;;;;;;4996069;28;20075;-57
2023/11/15 13:39:41;;;;;;;3.42;1.80;;;;;;;;;;4996136;28;20034;-57
2023/11/15 13:42:08;;;;;;;2.08;1.35;;;;;;;;;;4995701;28;20047;-57
2023/11/15 13:44:33;;;;;;;1.60;1.50;;;;;;;;;;4995817;28;20022;-55
2023/11/15 13:46:59;;;;;;;1.63;1.20;;;;;;;;;;4995969;28;20030;-55
2023/11/15 13:49:24;;;;;;;1.50;1.40;;;;;;;;;;4995905;28;20383;-55
2023/11/15 13:51:50;;;;;;;1.50;1.38;;;;;;;;;;4995865;28;20069;-55
2023/11/15 13:54:19;;;;;;;1.45;0.75;;;;;;;;;;4995028;28;20041;-55
2023/11/15 13:56:45;;;;;;;1.33;1.23;;;;;;;;;;4995822;28;20121;-55
2023/11/15 13:59:10;;;;;;;2.05;1.20;;;;;;;;;;4995743;28;20113;-55
2023/11/15 14:01:35;;;;;;;1.30;1.17;;;;;;;;;;4995652;28;20026;-55
2023/11/15 14:04:01;;;;;;;1.70;1.30;;;;;;;;;;4995875;28;20537;-54
2023/11/15 14:06:27;;;;;;;1.58;1.38;;;;;;;;;;4995797;28;20049;-55
2023/11/15 14:08:53;;;;;;;1.52;1.08;;;;;;;;;;4995504;28;20031;-55
2023/11/15 14:11:19;;;;;;;0.90;0.77;;;;;;;;;;4995978;28;20398;-55
2023/11/15 14:13:44;;;;;;;1.25;0.85;;;;;;;;;;4996687;28;20033;-55
2023/11/15 14:16:10;;;;;;;1.13;1.02;;;;;;;;;;4995592;28;20425;-55
2023/11/15 14:18:35;;;;;;;1.40;1.17;;;;;;;;;;4996073;28;20034;-55
2023/11/15 14:21:00;;;;;;;0.98;0.90;;;;;;;;;;4996253;28;20035;-55
2023/11/15 14:23:26;;;;;;;0.88;0.88;;;;;;;;;;4996710;28;20069;-55
2023/11/15 14:25:51;;;;;;;1.30;1.00;;;;;;;;;;4996405;28;20109;-55
2023/11/15 14:28:17;;;;;;;0.80;0.80;;;;;;;;;;4996378;28;20105;-55
2023/11/15 14:30:43;;;;;;;1.02;0.95;;;;;;;;;;4977963;28;20022;-55
2023/11/15 14:33:11;;;;;;;0.93;0.90;;;;;;;;;;4995148;28;20076;-54
2023/11/15 14:35:37;;;;;;;1.20;1.10;;;;;;;;;;4995074;28;20123;-54
2023/11/15 14:38:07;;;;;;;1.15;1.02;;;;;;;;;;4994937;28;20070;-55
2023/11/15 14:40:34;;;;;;;1.10;1.00;;;;;;;;;;4994898;28;20035;-55
2023/11/15 14:43:00;;;;;;;1.15;1.05;;;;;;;;;;4994924;28;20046;-55